Zell Am See Airport LOWZ

Flugplatz Daten

Name: Zell Am See Airport

Ident: LOWZ

Lat: 47,29330063

Long: 12,78829956

Platzhöhe: 2470 ft

IataCode:

City: Zell Am See

Homepage: http://www.flugplatz-zellamsee.at/

Metar

2021/08/26 15:20
LOWZ 261520Z AUTO 04011KT 8000 -RA OVC038 14/12 Q1012

Taf

Webcams

Airport
Gewünschte Webcam nicht vorhanden? Dann fügen Sie eine hinzu. Sie wird dann so schnell wie möglich freigeschaltet
Url: Title: